ADDS METAR Data INFO
IDs: Format: Raw Decoded Include TAF

Data at: 1612 UTC 14 Aug 2018

KVAF 141555Z AUTO 18012KT 4SM HZ CLR 30/23 A3001 RMK A01
KVAF 141535Z AUTO 19013KT 5SM HZ FEW024 30/23 A3000 RMK A01
KVAF 141515Z AUTO 19012KT 4SM HZ CLR 30/23 A3000 RMK A01
KVAF 141455Z AUTO 17012KT 4SM HZ FEW027 30/23 A3000 RMK A01
KVAF 141435Z AUTO 19011KT 4SM HZ CLR 30/23 A3000 RMK A01
KVAF 141415Z AUTO 20012KT 4SM HZ CLR 30/23 A2999 RMK A01
KVAF 141355Z AUTO 19013KT 5SM HZ CLR 30/23 A2999 RMK A01
KVAF 141335Z AUTO 18013KT CLR 30/23 A3000 RMK A01
KVAF 141315Z AUTO 17012KT 3SM HZ SCT027 SCT033 SCT045 29/23 A3000 RMK A01
KVAF 141255Z AUTO 17016KT 4SM HZ SCT028 SCT050 29/23 A2999 RMK A01
KVAF 141235Z AUTO 17014KT 4SM HZ CLR 29/22 A2999 RMK A01
KVAF 141215Z AUTO 17012KT 5SM HZ FEW028 FEW033 29/23 A2998 RMK A01
KVAF 141155Z AUTO 18012KT 4SM HZ SCT027 SCT034 29/23 A2998 RMK A01
KVAF 141135Z AUTO 18011KT 6SM HZ FEW028 29/23 A2998 RMK A01
KVAF 141115Z AUTO 18011KT 6SM HZ FEW030 29/22 A2997 RMK A01
KVAF 141055Z AUTO 17011KT 6SM HZ CLR 29/22 A2997 RMK A01
KVAF 141035Z AUTO 18013KT 6SM HZ CLR 29/23 A2997 RMK A01
KVAF 141015Z AUTO 19016KT 6SM HZ FEW026 29/23 A2996 RMK A01
KVAF 140955Z AUTO 18015KT 6SM HZ CLR 29/23 A2997 RMK A01
KVAF 140935Z AUTO 18015KT 5SM HZ FEW027 FEW055 29/23 A2997 RMK A01
KVAF 140915Z AUTO 19017KT 5SM HZ BKN027 BKN032 BKN055 29/23 A2997 RMK A01
KVAF 140855Z AUTO 20015KT 5SM HZ SCT027 BKN033 29/23 A2998 RMK A01
KVAF 140835Z AUTO 17014KT 5SM HZ FEW026 SCT036 29/23 A2999 RMK A01
KVAF 140815Z AUTO 16013KT 5SM HZ FEW027 29/23 A2999 RMK A01
KVAF 140755Z AUTO 15012KT 5SM HZ CLR 29/23 A3000 RMK A01
KVAF 140735Z AUTO 16013KT 5SM HZ CLR 29/23 A3000 RMK A01
KVAF 140715Z AUTO 15013KT 5SM HZ FEW026 FEW034 29/23 A3000 RMK A01
KVAF 140655Z AUTO 16013KT 5SM HZ SCT027 BKN034 BKN040 29/23 A3001 RMK A01
KVAF 140635Z AUTO 15012KT 5SM HZ SCT029 SCT037 29/23 A3002 RMK A01
KVAF 140615Z AUTO 15011KT 6SM HZ FEW028 29/23 A3002 RMK A01
KVAF 140555Z AUTO 15010KT 5SM HZ FEW027 29/23 A3003 RMK A01
KVAF 140535Z AUTO 14010KT 5SM HZ FEW026 FEW030 29/23 A3003 RMK A01
KVAF 140515Z AUTO 14010KT 5SM HZ FEW029 29/23 A3003 RMK A01
KVAF 140455Z AUTO 13009KT 5SM HZ SCT027 SCT034 29/23 A3002 RMK A01
KVAF 140435Z AUTO 14009KT 6SM HZ FEW027 FEW034 29/23 A3002 RMK A01
KVAF 140415Z AUTO 14009KT 5SM HZ FEW029 29/23 A3002 RMK A01
KVAF 140355Z AUTO 14011KT 6SM HZ SCT029 29/23 A3002 RMK A01
KVAF 140335Z AUTO 13010KT 5SM HZ FEW026 29/23 A3001 RMK A01
KVAF 140315Z AUTO 14009KT 6SM HZ SCT026 29/23 A3001 RMK A01
KVAF 140255Z AUTO 14008KT 5SM HZ FEW026 29/23 A3000 RMK A01
KVAF 140235Z AUTO 13009KT 5SM HZ CLR 29/22 A3000 RMK A01
KVAF 140215Z AUTO 13007KT 5SM HZ CLR 29/23 A2999 RMK A01
KVAF 140155Z AUTO 13007KT 5SM HZ CLR 29/23 A2998 RMK A01
KVAF 140135Z AUTO 14007KT 5SM HZ CLR 29/23 A2998 RMK A01
KVAF 140115Z AUTO 13008KT 5SM HZ CLR 29/23 A2998 RMK A01
KVAF 140055Z AUTO 14008KT 4SM HZ FEW026 29/23 A2998 RMK A01
KVAF 140035Z AUTO 13009KT 4SM HZ FEW025 29/24 A2997 RMK A01
KVAF 140015Z AUTO 14008KT 4SM HZ FEW025 29/24 A2997 RMK A01
KVAF 132355Z AUTO 13008KT 4SM HZ CLR 29/24 A2997 RMK A01
KVAF 132335Z AUTO 14007KT 4SM HZ CLR 29/23 A2997 RMK A01
KVAF 132315Z AUTO 15008KT 4SM HZ CLR 29/23 A2998 RMK A01
KVAF 132255Z AUTO 17007KT 4SM HZ CLR 30/23 A2998 RMK A01
KVAF 132235Z AUTO 17009KT 4SM HZ CLR 30/23 A2999 RMK A01
KVAF 132215Z AUTO 17011KT 4SM HZ FEW028 30/23 A3000 RMK A01
KVAF 132155Z AUTO 16010KT 3SM HZ CLR 30/23 A3000 RMK A01
KVAF 132135Z AUTO 18010KT 4SM HZ CLR 30/24 A3000 RMK A01
KVAF 132115Z AUTO 19011KT 3SM HZ FEW026 FEW033 30/24 A3001 RMK A01
KVAF 132055Z AUTO 15010KT 3SM HZ FEW026 SCT034 30/24 A3002 RMK A01
KVAF 132035Z AUTO 16010KT 3SM HZ FEW025 SCT034 30/24 A3003 RMK A01
KVAF 132015Z AUTO 18009KT 4SM HZ SCT025 SCT033 30/24 A3004 RMK A01
KVAF 131955Z AUTO 19009KT 3SM HZ CLR 30/24 A3004 RMK A01
KVAF 131935Z AUTO 19010KT 3SM HZ CLR 30/23 A3005 RMK A01
KVAF 131915Z AUTO 19010KT 5SM HZ FEW030 30/23 A3005 RMK A01
KVAF 131855Z AUTO 16009KT 4SM HZ FEW025 30/23 A3005 RMK A01
KVAF 131835Z AUTO 16008KT 4SM HZ FEW025 30/24 A3006 RMK A01
KVAF 131815Z AUTO 18007KT 4SM HZ CLR 30/23 A3006 RMK A01
KVAF 131755Z AUTO 20009KT 4SM HZ CLR 30/23 A3007 RMK A01
KVAF 131735Z AUTO 20008KT 4SM HZ CLR 30/23 A3007 RMK A01
KVAF 131715Z AUTO 23012KT 3SM HZ CLR 30/23 A3007 RMK A01
KVAF 131655Z AUTO 20012KT 4SM HZ FEW028 30/23 A3007 RMK A01
KVAF 131635Z AUTO 21010KT 4SM HZ FEW027 30/23 A3007 RMK A01
KVAF 131615Z AUTO 21012KT 3SM HZ CLR 30/23 A3007 RMK A01
KVAF 131555Z AUTO 22013KT 4SM HZ CLR 30/23 A3007 RMK A01
KVAF 131535Z AUTO 22012KT 3SM HZ CLR 30/23 A3007 RMK A01
KVAF 131515Z AUTO 21011KT 4SM HZ CLR 30/23 A3007 RMK A01
KVAF 131455Z AUTO 22012KT 3SM HZ CLR 30/22 A3006 RMK A01
KVAF 131435Z AUTO 22011KT 3SM HZ CLR 30/22 A3006 RMK A01
KVAF 131415Z AUTO 21011KT 3SM HZ FEW029 30/23 A3006 RMK A01
KVAF 131355Z AUTO 22010KT 3SM HZ SCT029 30/23 A3006 RMK A01
KVAF 131335Z AUTO 21011KT 3SM HZ FEW028 FEW033 29/22 A3006 RMK A01
KVAF 131315Z AUTO 21010G17KT 200V300 3SM HZ SCT028 BKN032 29/23 A3005 RMK A01
KVAF 131255Z AUTO 20009KT 3SM HZ FEW028 29/23 A3005 RMK A01
KVAF 131235Z AUTO 18011KT 3SM HZ FEW028 29/23 A3004 RMK A01
KVAF 131215Z AUTO 20012KT 3SM HZ FEW028 29/22 A3004 RMK A01
KVAF 131155Z AUTO 21011KT 3SM HZ FEW028 29/23 A3003 RMK A01
KVAF 131135Z AUTO 19013KT 5SM HZ CLR 29/22 A3003 RMK A01
KVAF 131115Z AUTO 20015KT 5SM HZ FEW028 29/22 A3003 RMK A01
KVAF 131055Z AUTO 18013KT 5SM HZ FEW026 FEW031 29/23 A3002 RMK A01
KVAF 131035Z AUTO 20015KT 4SM HZ SCT027 SCT031 29/23 A3002 RMK A01
KVAF 131015Z AUTO 19014KT 4SM HZ FEW027 29/23 A3002 RMK A01
KVAF 130955Z AUTO 18016KT 4SM HZ SCT027 SCT033 29/23 A3002 RMK A01
KVAF 130935Z AUTO 18015KT 5SM HZ BKN027 29/23 A3003 RMK A01
KVAF 130915Z AUTO 17016KT 4SM HZ SCT026 29/23 A3002 RMK A01
KVAF 130855Z AUTO 18016KT 5SM HZ CLR 29/23 A3002 RMK A01
KVAF 130835Z AUTO 17016KT 4SM HZ FEW027 29/23 A3002 RMK A01
KVAF 130815Z AUTO 16018KT 4SM HZ BKN025 BKN030 29/23 A3002 RMK A01
KVAF 130755Z AUTO 17017KT 4SM HZ SCT025 SCT030 29/23 A3003 RMK A01
KVAF 130735Z AUTO 16014KT 4SM HZ FEW026 29/23 A3003 RMK A01
KVAF 130715Z AUTO 16014KT 4SM HZ FEW023 FEW033 29/23 A3004 RMK A01
KVAF 130655Z AUTO 16014KT 4SM HZ SCT024 SCT031 29/23 A3005 RMK A01
KVAF 130635Z AUTO 14013KT 5SM HZ FEW024 SCT029 29/24 A3005 RMK A01
KVAF 130615Z AUTO 14013KT 4SM HZ SCT021 BKN027 29/24 A3005 RMK A01
KVAF 130555Z AUTO 15013KT 4SM HZ BKN021 BKN027 BKN035 29/24 A3005 RMK A01
KVAF 130535Z AUTO 15014KT 4SM HZ BKN021 BKN027 BKN035 29/24 A3006 RMK A01
KVAF 130515Z AUTO 14014KT 4SM HZ SCT021 29/25 A3006 RMK A01
KVAF 130455Z AUTO 16013KT 4SM HZ BKN021 29/25 A3006 RMK A01
KVAF 130435Z AUTO 15013KT 4SM HZ FEW020 29/24 A3006 RMK A01
KVAF 130415Z AUTO 15013KT 4SM HZ FEW020 29/24 A3006 RMK A01